sensor_id;sensor_type;location;lat;lon;timestamp;pressure;altitude;pressure_sealevel;temperature;humidity
46846;BME280;33947;46.804;134.252;2023-04-26T00:01:02;100197.84;;;16.85;46.25
46846;BME280;33947;46.804;134.252;2023-04-26T00:04:09;100198.97;;;16.51;45.74
46846;BME280;33947;46.804;134.252;2023-04-26T00:07:13;100196.94;;;16.54;45.42
46846;BME280;33947;46.804;134.252;2023-04-26T00:10:18;100193.72;;;16.63;45.27
46846;BME280;33947;46.804;134.252;2023-04-26T00:13:22;100196.78;;;16.41;44.80
46846;BME280;33947;46.804;134.252;2023-04-26T00:16:27;100199.66;;;15.21;45.09
46846;BME280;33947;46.804;134.252;2023-04-26T00:19:32;100196.53;;;15.64;45.76
46846;BME280;33947;46.804;134.252;2023-04-26T00:22:37;100179.59;;;16.29;44.66
46846;BME280;33947;46.804;134.252;2023-04-26T00:25:41;100198.19;;;16.00;45.34
46846;BME280;33947;46.804;134.252;2023-04-26T00:28:45;100201.59;;;15.86;45.22
46846;BME280;33947;46.804;134.252;2023-04-26T00:31:49;100210.81;;;15.29;44.11
46846;BME280;33947;46.804;134.252;2023-04-26T00:34:54;100203.94;;;15.93;44.67
46846;BME280;33947;46.804;134.252;2023-04-26T00:37:58;100195.50;;;16.95;42.59
46846;BME280;33947;46.804;134.252;2023-04-26T00:41:02;100197.16;;;15.85;43.68
46846;BME280;33947;46.804;134.252;2023-04-26T00:44:07;100197.38;;;16.46;42.34
46846;BME280;33947;46.804;134.252;2023-04-26T00:47:11;100187.72;;;17.21;40.09
46846;BME280;33947;46.804;134.252;2023-04-26T00:50:15;100171.75;;;17.48;38.93
46846;BME280;33947;46.804;134.252;2023-04-26T00:53:21;100183.88;;;15.32;42.30
46846;BME280;33947;46.804;134.252;2023-04-26T00:56:26;100185.38;;;15.38;40.54
46846;BME280;33947;46.804;134.252;2023-04-26T00:59:31;100186.72;;;15.29;36.82
46846;BME280;33947;46.804;134.252;2023-04-26T01:02:38;100184.16;;;16.27;35.97
46846;BME280;33947;46.804;134.252;2023-04-26T01:05:43;100185.88;;;16.44;35.60
46846;BME280;33947;46.804;134.252;2023-04-26T01:08:49;100174.84;;;16.18;35.32
46846;BME280;33947;46.804;134.252;2023-04-26T01:11:56;100157.72;;;16.37;34.09
46846;BME280;33947;46.804;134.252;2023-04-26T01:15:02;100177.00;;;15.96;31.46
46846;BME280;33947;46.804;134.252;2023-04-26T01:18:07;100173.25;;;16.46;30.99
46846;BME280;33947;46.804;134.252;2023-04-26T01:21:19;100172.75;;;16.40;30.27
46846;BME280;33947;46.804;134.252;2023-04-26T01:24:24;100114.19;;;16.01;28.39
46846;BME280;33947;46.804;134.252;2023-04-26T01:27:29;100173.59;;;16.40;31.80
46846;BME280;33947;46.804;134.252;2023-04-26T01:30:33;100171.41;;;16.16;32.31
46846;BME280;33947;46.804;134.252;2023-04-26T01:33:37;100167.09;;;14.58;33.22
46846;BME280;33947;46.804;134.252;2023-04-26T01:36:42;100192.59;;;15.87;28.88
46846;BME280;33947;46.804;134.252;2023-04-26T01:39:47;100176.22;;;16.26;27.29
46846;BME280;33947;46.804;134.252;2023-04-26T01:42:55;100158.66;;;16.83;29.42
46846;BME280;33947;46.804;134.252;2023-04-26T01:46:03;100181.44;;;16.75;29.71
46846;BME280;33947;46.804;134.252;2023-04-26T01:49:07;100182.53;;;17.18;29.16
46846;BME280;33947;46.804;134.252;2023-04-26T01:52:12;100174.56;;;16.39;28.71
46846;BME280;33947;46.804;134.252;2023-04-26T01:55:16;100162.94;;;17.46;28.09
46846;BME280;33947;46.804;134.252;2023-04-26T01:58:20;100171.22;;;16.19;27.30
46846;BME280;33947;46.804;134.252;2023-04-26T02:01:25;100148.66;;;15.58;27.43
46846;BME280;33947;46.804;134.252;2023-04-26T02:04:30;100162.56;;;15.65;27.45
46846;BME280;33947;46.804;134.252;2023-04-26T02:07:35;100152.16;;;14.54;27.14
46846;BME280;33947;46.804;134.252;2023-04-26T02:10:39;100155.34;;;15.33;27.75
46846;BME280;33947;46.804;134.252;2023-04-26T02:13:44;100173.59;;;14.35;26.61
46846;BME280;33947;46.804;134.252;2023-04-26T02:16:49;100125.97;;;14.26;26.51
46846;BME280;33947;46.804;134.252;2023-04-26T02:19:54;100161.25;;;15.22;27.57
46846;BME280;33947;46.804;134.252;2023-04-26T02:22:59;100151.75;;;14.44;27.84
46846;BME280;33947;46.804;134.252;2023-04-26T02:26:04;100150.63;;;14.31;27.88
46846;BME280;33947;46.804;134.252;2023-04-26T02:29:08;100164.91;;;14.49;28.21
46846;BME280;33947;46.804;134.252;2023-04-26T02:32:13;100168.84;;;14.59;27.61
46846;BME280;33947;46.804;134.252;2023-04-26T02:35:17;100151.75;;;14.44;27.13
46846;BME280;33947;46.804;134.252;2023-04-26T02:38:22;100152.44;;;14.11;27.90
46846;BME280;33947;46.804;134.252;2023-04-26T02:41:31;100154.63;;;14.03;27.05
46846;BME280;33947;46.804;134.252;2023-04-26T02:44:36;100135.81;;;13.07;27.43
46846;BME280;33947;46.804;134.252;2023-04-26T02:47:43;100152.41;;;13.94;28.15
46846;BME280;33947;46.804;134.252;2023-04-26T02:50:47;100143.44;;;14.14;27.39
46846;BME280;33947;46.804;134.252;2023-04-26T02:53:52;100153.09;;;13.78;26.91
46846;BME280;33947;46.804;134.252;2023-04-26T02:56:56;100152.69;;;13.87;26.01
46846;BME280;33947;46.804;134.252;2023-04-26T03:00:02;100148.59;;;12.78;27.39
46846;BME280;33947;46.804;134.252;2023-04-26T03:03:10;100134.06;;;13.67;27.83
46846;BME280;33947;46.804;134.252;2023-04-26T03:06:15;100148.78;;;13.75;27.95
46846;BME280;33947;46.804;134.252;2023-04-26T03:09:20;100150.88;;;14.07;27.11
46846;BME280;33947;46.804;134.252;2023-04-26T03:12:26;100124.91;;;13.53;27.42
46846;BME280;33947;46.804;134.252;2023-04-26T03:15:30;100153.22;;;13.16;26.16
46846;BME280;33947;46.804;134.252;2023-04-26T03:18:35;100144.06;;;13.01;26.76
46846;BME280;33947;46.804;134.252;2023-04-26T03:21:41;100134.69;;;12.71;26.03
46846;BME280;33947;46.804;134.252;2023-04-26T03:24:45;100113.00;;;12.79;26.73
46846;BME280;33947;46.804;134.252;2023-04-26T03:27:51;100142.06;;;12.85;23.99
46846;BME280;33947;46.804;134.252;2023-04-26T03:30:55;100134.91;;;12.65;26.51
46846;BME280;33947;46.804;134.252;2023-04-26T03:34:00;100135.31;;;12.56;26.96
46846;BME280;33947;46.804;134.252;2023-04-26T03:37:05;100140.38;;;12.62;23.94
46846;BME280;33947;46.804;134.252;2023-04-26T03:40:11;100146.63;;;12.61;26.29
46846;BME280;33947;46.804;134.252;2023-04-26T03:43:15;100134.25;;;13.43;27.29
46846;BME280;33947;46.804;134.252;2023-04-26T03:46:19;100133.19;;;13.47;27.16
46846;BME280;33947;46.804;134.252;2023-04-26T03:49:24;100110.25;;;12.60;25.60
46846;BME280;33947;46.804;134.252;2023-04-26T03:52:30;100132.66;;;12.34;26.04
46846;BME280;33947;46.804;134.252;2023-04-26T03:55:34;100074.81;;;12.58;25.88
46846;BME280;33947;46.804;134.252;2023-04-26T03:58:39;100105.28;;;12.94;26.14
46846;BME280;33947;46.804;134.252;2023-04-26T04:01:45;100094.75;;;12.70;26.54
46846;BME280;33947;46.804;134.252;2023-04-26T04:04:50;100120.97;;;12.15;24.86
46846;BME280;33947;46.804;134.252;2023-04-26T04:07:55;100128.91;;;12.60;27.02
46846;BME280;33947;46.804;134.252;2023-04-26T04:11:00;100124.84;;;12.07;24.60
46846;BME280;33947;46.804;134.252;2023-04-26T04:14:06;100131.81;;;12.33;26.37
46846;BME280;33947;46.804;134.252;2023-04-26T04:17:10;100102.03;;;12.23;24.95
46846;BME280;33947;46.804;134.252;2023-04-26T04:20:14;100130.69;;;12.16;26.59
46846;BME280;33947;46.804;134.252;2023-04-26T04:23:19;100138.50;;;12.64;27.24
46846;BME280;33947;46.804;134.252;2023-04-26T04:26:24;100121.19;;;12.54;27.40
46846;BME280;33947;46.804;134.252;2023-04-26T04:29:29;100127.22;;;11.91;27.36
46846;BME280;33947;46.804;134.252;2023-04-26T04:32:35;100126.66;;;12.28;26.78
46846;BME280;33947;46.804;134.252;2023-04-26T04:35:40;100111.50;;;12.08;26.92
46846;BME280;33947;46.804;134.252;2023-04-26T04:38:45;100112.47;;;12.71;26.38
46846;BME280;33947;46.804;134.252;2023-04-26T04:41:52;100116.81;;;12.08;26.04
46846;BME280;33947;46.804;134.252;2023-04-26T04:44:58;100112.75;;;12.65;26.24
46846;BME280;33947;46.804;134.252;2023-04-26T04:48:05;100105.63;;;12.86;26.77
46846;BME280;33947;46.804;134.252;2023-04-26T04:51:10;100125.13;;;12.66;25.26
46846;BME280;33947;46.804;134.252;2023-04-26T04:54:16;100127.59;;;12.05;26.66
46846;BME280;33947;46.804;134.252;2023-04-26T04:57:22;100119.31;;;11.89;26.29
46846;BME280;33947;46.804;134.252;2023-04-26T05:00:26;100087.47;;;11.64;25.45
46846;BME280;33947;46.804;134.252;2023-04-26T05:03:46;100099.47;;;12.20;25.81
46846;BME280;33947;46.804;134.252;2023-04-26T05:06:51;100117.06;;;12.02;25.58
46846;BME280;33947;46.804;134.252;2023-04-26T05:09:57;100118.72;;;11.58;25.68
46846;BME280;33947;46.804;134.252;2023-04-26T05:13:06;100112.47;;;11.60;23.71
46846;BME280;33947;46.804;134.252;2023-04-26T05:16:12;100097.53;;;11.32;25.26
46846;BME280;33947;46.804;134.252;2023-04-26T05:19:16;100101.41;;;11.93;25.52
46846;BME280;33947;46.804;134.252;2023-04-26T05:22:20;100116.75;;;11.64;25.57
46846;BME280;33947;46.804;134.252;2023-04-26T05:25:26;100092.09;;;11.35;25.14
46846;BME280;33947;46.804;134.252;2023-04-26T05:28:38;100092.38;;;11.03;24.21
46846;BME280;33947;46.804;134.252;2023-04-26T05:32:12;100080.41;;;11.63;24.93
46846;BME280;33947;46.804;134.252;2023-04-26T05:35:16;100101.16;;;12.00;24.50
46846;BME280;33947;46.804;134.252;2023-04-26T05:38:20;100079.13;;;11.49;23.43
46846;BME280;33947;46.804;134.252;2023-04-26T05:41:25;100099.25;;;11.80;26.01
46846;BME280;33947;46.804;134.252;2023-04-26T05:44:30;100077.22;;;11.99;25.22
46846;BME280;33947;46.804;134.252;2023-04-26T05:47:34;100091.81;;;11.88;24.63
46846;BME280;33947;46.804;134.252;2023-04-26T05:50:39;100059.84;;;11.44;25.00
46846;BME280;33947;46.804;134.252;2023-04-26T05:53:43;100079.03;;;10.79;24.31
46846;BME280;33947;46.804;134.252;2023-04-26T05:56:48;100086.84;;;10.84;25.35
46846;BME280;33947;46.804;134.252;2023-04-26T05:59:52;100087.88;;;10.80;25.77
46846;BME280;33947;46.804;134.252;2023-04-26T06:02:57;100100.53;;;11.46;26.70
46846;BME280;33947;46.804;134.252;2023-04-26T06:06:02;100095.91;;;11.75;25.62
46846;BME280;33947;46.804;134.252;2023-04-26T06:09:06;100099.59;;;11.47;25.51
46846;BME280;33947;46.804;134.252;2023-04-26T06:12:11;100079.78;;;11.56;26.12
46846;BME280;33947;46.804;134.252;2023-04-26T06:15:18;100133.75;;;11.60;26.02
46846;BME280;33947;46.804;134.252;2023-04-26T06:18:23;100121.50;;;11.06;26.49
46846;BME280;33947;46.804;134.252;2023-04-26T06:21:33;100126.69;;;11.58;27.09
46846;BME280;33947;46.804;134.252;2023-04-26T06:24:37;100121.09;;;11.42;26.56
46846;BME280;33947;46.804;134.252;2023-04-26T06:27:42;100119.03;;;11.49;26.28
46846;BME280;33947;46.804;134.252;2023-04-26T06:30:46;100128.59;;;11.55;26.03
46846;BME280;33947;46.804;134.252;2023-04-26T06:33:51;100143.25;;;11.18;25.81
46846;BME280;33947;46.804;134.252;2023-04-26T06:36:56;100135.50;;;10.59;27.06
46846;BME280;33947;46.804;134.252;2023-04-26T06:40:07;100123.03;;;10.88;27.29
46846;BME280;33947;46.804;134.252;2023-04-26T06:43:11;100137.47;;;10.79;26.39
46846;BME280;33947;46.804;134.252;2023-04-26T06:46:41;100151.94;;;10.70;27.56
46846;BME280;33947;46.804;134.252;2023-04-26T06:49:46;100157.41;;;10.37;27.62
46846;BME280;33947;46.804;134.252;2023-04-26T06:52:50;100163.47;;;10.96;27.64
46846;BME280;33947;46.804;134.252;2023-04-26T06:55:54;100142.09;;;11.25;26.44
46846;BME280;33947;46.804;134.252;2023-04-26T06:59:05;100157.19;;;11.48;26.08
46846;BME280;33947;46.804;134.252;2023-04-26T07:02:10;100149.19;;;11.50;25.80
46846;BME280;33947;46.804;134.252;2023-04-26T07:05:16;100155.38;;;11.25;26.40
46846;BME280;33947;46.804;134.252;2023-04-26T07:08:21;100160.53;;;11.79;26.49
46846;BME280;33947;46.804;134.252;2023-04-26T07:11:25;100161.81;;;11.19;25.53
46846;BME280;33947;46.804;134.252;2023-04-26T07:14:29;100162.56;;;10.97;24.92
46846;BME280;33947;46.804;134.252;2023-04-26T07:17:34;100161.38;;;11.06;25.94
46846;BME280;33947;46.804;134.252;2023-04-26T07:20:39;100159.31;;;10.62;25.78
46846;BME280;33947;46.804;134.252;2023-04-26T07:23:43;100167.88;;;10.97;26.12
46846;BME280;33947;46.804;134.252;2023-04-26T07:26:47;100160.72;;;10.99;25.50
46846;BME280;33947;46.804;134.252;2023-04-26T07:29:54;100140.47;;;10.95;25.24
46846;BME280;33947;46.804;134.252;2023-04-26T07:32:59;100167.03;;;10.70;25.68
46846;BME280;33947;46.804;134.252;2023-04-26T07:36:03;100174.94;;;10.45;24.59
46846;BME280;33947;46.804;134.252;2023-04-26T07:39:08;100164.88;;;10.54;25.81
46846;BME280;33947;46.804;134.252;2023-04-26T07:42:14;100178.41;;;10.74;26.04
46846;BME280;33947;46.804;134.252;2023-04-26T07:45:18;100152.09;;;10.37;24.95
46846;BME280;33947;46.804;134.252;2023-04-26T07:48:22;100177.28;;;10.54;23.98
46846;BME280;33947;46.804;134.252;2023-04-26T07:51:27;100182.38;;;10.62;24.35
46846;BME280;33947;46.804;134.252;2023-04-26T07:54:32;100182.41;;;10.87;25.01
46846;BME280;33947;46.804;134.252;2023-04-26T07:57:38;100184.84;;;10.93;24.89
46846;BME280;33947;46.804;134.252;2023-04-26T08:00:43;100169.56;;;10.46;25.32
46846;BME280;33947;46.804;134.252;2023-04-26T08:03:47;100189.00;;;10.75;25.42
46846;BME280;33947;46.804;134.252;2023-04-26T08:06:52;100189.09;;;10.72;24.84
46846;BME280;33947;46.804;134.252;2023-04-26T08:09:56;100201.50;;;10.45;24.90
46846;BME280;33947;46.804;134.252;2023-04-26T08:13:01;100198.13;;;10.66;25.28
46846;BME280;33947;46.804;134.252;2023-04-26T08:16:06;100189.97;;;10.46;25.34
46846;BME280;33947;46.804;134.252;2023-04-26T08:19:10;100190.56;;;10.25;25.91
46846;BME280;33947;46.804;134.252;2023-04-26T08:22:15;100170.84;;;10.04;26.37
46846;BME280;33947;46.804;134.252;2023-04-26T08:25:20;100188.16;;;10.16;25.52
46846;BME280;33947;46.804;134.252;2023-04-26T08:28:23;100176.72;;;10.14;26.04
46846;BME280;33947;46.804;134.252;2023-04-26T08:31:28;100164.25;;;9.88;25.87
46846;BME280;33947;46.804;134.252;2023-04-26T08:34:32;100168.63;;;9.90;26.18
46846;BME280;33947;46.804;134.252;2023-04-26T08:37:36;100178.16;;;9.96;25.28
46846;BME280;33947;46.804;134.252;2023-04-26T08:40:42;100179.00;;;9.68;26.33
46846;BME280;33947;46.804;134.252;2023-04-26T08:43:50;100186.75;;;9.44;26.52
46846;BME280;33947;46.804;134.252;2023-04-26T08:47:05;100190.22;;;9.46;27.26
46846;BME280;33947;46.804;134.252;2023-04-26T08:50:18;100188.03;;;9.61;27.02
46846;BME280;33947;46.804;134.252;2023-04-26T08:53:23;100167.88;;;9.55;27.30
46846;BME280;33947;46.804;134.252;2023-04-26T08:56:27;100143.75;;;9.33;26.97
46846;BME280;33947;46.804;134.252;2023-04-26T08:59:41;100180.78;;;9.36;25.59
46846;BME280;33947;46.804;134.252;2023-04-26T09:02:51;100148.38;;;9.24;26.88
46846;BME280;33947;46.804;134.252;2023-04-26T09:05:57;100165.47;;;9.14;27.63
46846;BME280;33947;46.804;134.252;2023-04-26T09:09:04;100142.13;;;8.95;28.29
46846;BME280;33947;46.804;134.252;2023-04-26T09:12:10;100185.91;;;9.09;27.86
46846;BME280;33947;46.804;134.252;2023-04-26T09:15:14;100175.13;;;8.82;28.81
46846;BME280;33947;46.804;134.252;2023-04-26T09:18:21;100185.03;;;8.74;28.92
46846;BME280;33947;46.804;134.252;2023-04-26T09:21:26;100182.88;;;8.55;28.61
46846;BME280;33947;46.804;134.252;2023-04-26T09:24:45;100200.28;;;8.26;29.79
46846;BME280;33947;46.804;134.252;2023-04-26T09:27:51;100160.44;;;8.31;28.85
46846;BME280;33947;46.804;134.252;2023-04-26T09:30:55;100185.69;;;8.46;28.83
46846;BME280;33947;46.804;134.252;2023-04-26T09:33:59;100170.84;;;8.38;29.28
46846;BME280;33947;46.804;134.252;2023-04-26T09:37:04;100200.09;;;8.34;29.72
46846;BME280;33947;46.804;134.252;2023-04-26T09:40:17;100188.94;;;8.19;29.79
46846;BME280;33947;46.804;134.252;2023-04-26T09:43:22;100200.53;;;8.14;29.59
46846;BME280;33947;46.804;134.252;2023-04-26T09:46:26;100203.31;;;8.07;29.76
46846;BME280;33947;46.804;134.252;2023-04-26T09:49:32;100206.09;;;8.01;30.03
46846;BME280;33947;46.804;134.252;2023-04-26T09:52:45;100152.13;;;7.69;29.27
46846;BME280;33947;46.804;134.252;2023-04-26T09:55:50;100207.41;;;7.81;29.68
46846;BME280;33947;46.804;134.252;2023-04-26T09:58:57;100216.34;;;7.76;29.82
46846;BME280;33947;46.804;134.252;2023-04-26T10:02:03;100230.72;;;7.62;29.95
46846;BME280;33947;46.804;134.252;2023-04-26T10:05:08;100231.81;;;7.49;30.34
46846;BME280;33947;46.804;134.252;2023-04-26T10:08:13;100212.78;;;7.31;30.15
46846;BME280;33947;46.804;134.252;2023-04-26T10:11:20;100226.09;;;7.27;30.83
46846;BME280;33947;46.804;134.252;2023-04-26T10:14:27;100235.91;;;7.18;30.55
46846;BME280;33947;46.804;134.252;2023-04-26T10:17:31;100235.97;;;7.15;30.49
46846;BME280;33947;46.804;134.252;2023-04-26T10:20:39;100241.38;;;7.09;30.25
46846;BME280;33947;46.804;134.252;2023-04-26T10:23:46;100238.13;;;6.91;30.99
46846;BME280;33947;46.804;134.252;2023-04-26T10:26:53;100240.09;;;6.78;31.17
46846;BME280;33947;46.804;134.252;2023-04-26T10:33:10;100248.16;;;6.69;31.65
46846;BME280;33947;46.804;134.252;2023-04-26T10:36:17;100242.41;;;6.44;32.17
46846;BME280;33947;46.804;134.252;2023-04-26T10:39:23;100251.44;;;6.27;32.17
46846;BME280;33947;46.804;134.252;2023-04-26T10:42:30;100246.22;;;6.22;32.76
46846;BME280;33947;46.804;134.252;2023-04-26T10:45:35;100234.28;;;5.92;33.54
46846;BME280;33947;46.804;134.252;2023-04-26T10:48:40;100257.16;;;5.90;34.21
46846;BME280;33947;46.804;134.252;2023-04-26T10:52:09;100271.41;;;5.75;36.49
46846;BME280;33947;46.804;134.252;2023-04-26T10:55:40;100221.91;;;5.20;38.22
46846;BME280;33947;46.804;134.252;2023-04-26T10:58:45;100243.78;;;5.27;36.68
46846;BME280;33947;46.804;134.252;2023-04-26T11:01:51;100283.09;;;5.50;36.11
46846;BME280;33947;46.804;134.252;2023-04-26T11:04:55;100260.50;;;5.25;37.29
46846;BME280;33947;46.804;134.252;2023-04-26T11:08:05;100283.66;;;4.82;38.99
46846;BME280;33947;46.804;134.252;2023-04-26T11:11:11;100285.38;;;4.89;38.39
46846;BME280;33947;46.804;134.252;2023-04-26T11:14:17;100284.63;;;4.69;39.90
46846;BME280;33947;46.804;134.252;2023-04-26T11:17:34;100294.34;;;4.60;40.66
46846;BME280;33947;46.804;134.252;2023-04-26T11:20:51;100277.75;;;4.49;40.03
46846;BME280;33947;46.804;134.252;2023-04-26T11:23:56;100288.28;;;4.49;40.77
46846;BME280;33947;46.804;134.252;2023-04-26T11:27:07;100302.25;;;4.57;40.64
46846;BME280;33947;46.804;134.252;2023-04-26T11:30:12;100299.69;;;4.48;40.44
46846;BME280;33947;46.804;134.252;2023-04-26T11:33:18;100290.97;;;4.33;40.52
46846;BME280;33947;46.804;134.252;2023-04-26T11:36:25;100283.97;;;4.34;40.36
46846;BME280;33947;46.804;134.252;2023-04-26T11:39:31;100293.75;;;4.05;41.71
46846;BME280;33947;46.804;134.252;2023-04-26T11:42:36;100292.00;;;4.04;41.68
46846;BME280;33947;46.804;134.252;2023-04-26T11:45:41;100320.84;;;4.15;41.68
46846;BME280;33947;46.804;134.252;2023-04-26T11:48:46;100307.78;;;3.95;42.20
46846;BME280;33947;46.804;134.252;2023-04-26T11:51:50;100316.59;;;3.85;43.18
46846;BME280;33947;46.804;134.252;2023-04-26T11:55:04;100322.78;;;3.54;45.04
46846;BME280;33947;46.804;134.252;2023-04-26T11:58:13;100319.28;;;3.52;44.22
46846;BME280;33947;46.804;134.252;2023-04-26T12:01:26;100329.81;;;3.52;44.46
46846;BME280;33947;46.804;134.252;2023-04-26T12:04:35;100322.78;;;3.39;45.29
46846;BME280;33947;46.804;134.252;2023-04-26T12:07:41;100338.56;;;3.40;44.62
46846;BME280;33947;46.804;134.252;2023-04-26T12:10:45;100336.81;;;3.38;44.81
46846;BME280;33947;46.804;134.252;2023-04-26T12:13:51;100340.31;;;3.52;44.04
46846;BME280;33947;46.804;134.252;2023-04-26T12:17:01;100335.94;;;3.48;43.23
46846;BME280;33947;46.804;134.252;2023-04-26T12:20:10;100316.72;;;3.26;43.59
46846;BME280;33947;46.804;134.252;2023-04-26T12:23:16;100327.19;;;3.32;43.51
46846;BME280;33947;46.804;134.252;2023-04-26T12:26:21;100317.56;;;3.28;43.45
46846;BME280;33947;46.804;134.252;2023-04-26T12:29:26;100346.44;;;3.23;43.65
46846;BME280;33947;46.804;134.252;2023-04-26T12:32:33;100343.81;;;3.00;43.93
46846;BME280;33947;46.804;134.252;2023-04-26T12:35:38;100343.75;;;2.72;45.17
46846;BME280;33947;46.804;134.252;2023-04-26T12:38:43;100355.13;;;2.71;45.55
46846;BME280;33947;46.804;134.252;2023-04-26T12:41:47;100344.63;;;2.71;43.99
46846;BME280;33947;46.804;134.252;2023-04-26T12:44:52;100352.44;;;2.44;46.64
46846;BME280;33947;46.804;134.252;2023-04-26T12:47:56;100340.97;;;2.16;47.42
46846;BME280;33947;46.804;134.252;2023-04-26T12:51:00;100355.91;;;2.40;46.02
46846;BME280;33947;46.804;134.252;2023-04-26T12:54:07;100352.38;;;2.34;45.81
46846;BME280;33947;46.804;134.252;2023-04-26T12:57:12;100351.44;;;2.11;47.58
46846;BME280;33947;46.804;134.252;2023-04-26T13:00:17;100364.53;;;2.11;47.58
46846;BME280;33947;46.804;134.252;2023-04-26T13:03:24;100359.22;;;2.00;48.84
46846;BME280;33947;46.804;134.252;2023-04-26T13:06:29;100359.03;;;1.69;49.82
46846;BME280;33947;46.804;134.252;2023-04-26T13:09:34;100354.50;;;1.40;52.83
46846;BME280;33947;46.804;134.252;2023-04-26T13:12:39;100363.22;;;1.39;50.61
46846;BME280;33947;46.804;134.252;2023-04-26T13:15:46;100362.50;;;1.61;50.11
46846;BME280;33947;46.804;134.252;2023-04-26T13:18:51;100357.34;;;1.71;49.01
46846;BME280;33947;46.804;134.252;2023-04-26T13:21:56;100330.94;;;1.37;50.11
46846;BME280;33947;46.804;134.252;2023-04-26T13:25:00;100343.09;;;1.34;50.73
46846;BME280;33947;46.804;134.252;2023-04-26T13:28:05;100365.66;;;1.21;52.21
46846;BME280;33947;46.804;134.252;2023-04-26T13:31:10;100370.06;;;1.25;51.45
46846;BME280;33947;46.804;134.252;2023-04-26T13:34:14;100368.56;;;1.56;49.70
46846;BME280;33947;46.804;134.252;2023-04-26T13:37:20;100370.41;;;1.70;48.48
46846;BME280;33947;46.804;134.252;2023-04-26T13:40:25;100375.38;;;1.36;50.63
46846;BME280;33947;46.804;134.252;2023-04-26T13:43:31;100374.31;;;1.12;52.14
46846;BME280;33947;46.804;134.252;2023-04-26T13:46:35;100378.53;;;0.97;51.60
46846;BME280;33947;46.804;134.252;2023-04-26T13:49:40;100322.59;;;0.80;51.25
46846;BME280;33947;46.804;134.252;2023-04-26T13:52:44;100383.06;;;1.14;51.54
46846;BME280;33947;46.804;134.252;2023-04-26T13:55:49;100387.38;;;1.10;51.17
46846;BME280;33947;46.804;134.252;2023-04-26T13:58:57;100326.78;;;0.65;52.65
46846;BME280;33947;46.804;134.252;2023-04-26T14:02:04;100383.78;;;1.00;51.63
46846;BME280;33947;46.804;134.252;2023-04-26T14:05:08;100384.53;;;0.89;51.78
46846;BME280;33947;46.804;134.252;2023-04-26T14:08:13;100386.09;;;0.69;52.65
46846;BME280;33947;46.804;134.252;2023-04-26T14:11:17;100392.41;;;0.89;51.93
46846;BME280;33947;46.804;134.252;2023-04-26T14:14:22;100376.78;;;0.96;51.28
46846;BME280;33947;46.804;134.252;2023-04-26T14:17:26;100394.03;;;0.77;52.56
46846;BME280;33947;46.804;134.252;2023-04-26T14:20:31;100395.53;;;0.55;52.75
46846;BME280;33947;46.804;134.252;2023-04-26T14:23:36;100386.03;;;0.62;52.31
46846;BME280;33947;46.804;134.252;2023-04-26T14:26:40;100400.72;;;0.52;52.82
46846;BME280;33947;46.804;134.252;2023-04-26T14:29:44;100363.94;;;0.35;53.16
46846;BME280;33947;46.804;134.252;2023-04-26T14:32:48;100404.16;;;0.48;53.18
46846;BME280;33947;46.804;134.252;2023-04-26T14:35:53;100407.31;;;0.20;55.03
46846;BME280;33947;46.804;134.252;2023-04-26T14:38:59;100408.28;;;0.28;54.36
46846;BME280;33947;46.804;134.252;2023-04-26T14:42:03;100407.56;;;0.42;54.01
46846;BME280;33947;46.804;134.252;2023-04-26T14:45:08;100416.97;;;0.27;53.91
46846;BME280;33947;46.804;134.252;2023-04-26T14:48:13;100417.72;;;0.19;55.19
46846;BME280;33947;46.804;134.252;2023-04-26T14:51:21;100339.69;;;-0.21;54.73
46846;BME280;33947;46.804;134.252;2023-04-26T14:54:25;100411.53;;;0.12;54.71
46846;BME280;33947;46.804;134.252;2023-04-26T14:57:29;100415.88;;;0.13;55.28
46846;BME280;33947;46.804;134.252;2023-04-26T15:00:35;100409.69;;;0.05;54.91
46846;BME280;33947;46.804;134.252;2023-04-26T15:03:41;100413.03;;;-0.06;55.88
46846;BME280;33947;46.804;134.252;2023-04-26T15:06:46;100394.69;;;-0.10;55.75
46846;BME280;33947;46.804;134.252;2023-04-26T15:09:50;100410.34;;;-0.12;55.86
46846;BME280;33947;46.804;134.252;2023-04-26T15:12:55;100432.13;;;-0.10;55.80
46846;BME280;33947;46.804;134.252;2023-04-26T15:16:05;100427.47;;;-0.30;56.17
46846;BME280;33947;46.804;134.252;2023-04-26T15:19:10;100412.75;;;-0.24;55.07
46846;BME280;33947;46.804;134.252;2023-04-26T15:22:15;100409.09;;;-0.37;56.69
46846;BME280;33947;46.804;134.252;2023-04-26T15:25:20;100426.69;;;-0.24;56.43
46846;BME280;33947;46.804;134.252;2023-04-26T15:28:24;100443.16;;;-0.26;56.99
46846;BME280;33947;46.804;134.252;2023-04-26T15:31:28;100446.69;;;-0.26;56.45
46846;BME280;33947;46.804;134.252;2023-04-26T15:34:38;100451.25;;;-0.09;56.18
46846;BME280;33947;46.804;134.252;2023-04-26T15:37:43;100452.38;;;0.07;55.07
46846;BME280;33947;46.804;134.252;2023-04-26T15:40:48;100449.56;;;-0.09;54.25
46846;BME280;33947;46.804;134.252;2023-04-26T15:43:56;100438.47;;;0.06;54.03
46846;BME280;33947;46.804;134.252;2023-04-26T15:47:02;100453.91;;;-0.08;54.81
46846;BME280;33947;46.804;134.252;2023-04-26T15:50:07;100462.56;;;-0.12;54.48
46846;BME280;33947;46.804;134.252;2023-04-26T15:53:12;100450.38;;;-0.13;54.43